Time;durP1;ratioP1;P1;durP2;ratioP2;P2;SDS_P1;SDS_P2;PMS_P1;PMS_P2;Temp;Humidity;BMP_temperature;BMP_pressure;BME280_temperature;BME280_humidity;BME280_pressure;Samples;Min_cycle;Max_cycle;Signal;HPM_P1;HPM_P2
2022/08/23 00:00:46;;;;;;;6.05;4.05;;;20.70;75.70;;;;;;5055928;28;20032;-11
2022/08/23 00:03:12;;;;;;;6.05;4.03;;;20.60;76.50;;;;;;5055632;28;20032;-11
2022/08/23 00:05:39;;;;;;;5.35;3.75;;;20.60;75.80;;;;;;5055903;28;20056;-11
2022/08/23 00:08:05;;;;;;;4.93;3.80;;;20.50;76.10;;;;;;5055512;28;20510;-11
2022/08/23 00:10:31;;;;;;;5.55;3.72;;;20.50;75.90;;;;;;5055591;28;20096;-11
2022/08/23 00:12:57;;;;;;;6.30;3.70;;;20.50;76.20;;;;;;5055640;28;20035;-12
2022/08/23 00:15:24;;;;;;;4.95;3.38;;;20.50;75.90;;;;;;5055853;28;20384;-12
2022/08/23 00:17:50;;;;;;;5.70;3.55;;;20.50;75.70;;;;;;5055579;28;20417;-12
2022/08/23 00:20:19;;;;;;;4.78;3.15;;;20.40;75.70;;;;;;5055318;28;20071;-11
2022/08/23 00:22:45;;;;;;;5.45;3.58;;;20.40;75.80;;;;;;5055273;28;20025;-11
2022/08/23 00:25:14;;;;;;;4.25;3.05;;;20.50;75.80;;;;;;5055068;28;20366;-12
2022/08/23 00:27:41;;;;;;;4.15;3.25;;;20.40;75.70;;;;;;5054972;28;20025;-11
2022/08/23 00:30:11;;;;;;;6.18;3.67;;;20.40;75.80;;;;;;5054333;28;20114;-12
2022/08/23 00:32:39;;;;;;;4.82;3.30;;;20.40;75.90;;;;;;5055110;28;20036;-11
2022/08/23 00:35:08;;;;;;;5.22;3.60;;;20.30;75.90;;;;;;5055181;28;20021;-12
2022/08/23 00:37:34;;;;;;;5.70;3.60;;;20.30;76.20;;;;;;5054905;28;20043;-11
2022/08/23 00:40:02;;;;;;;4.93;3.22;;;20.20;76.10;;;;;;5054978;28;20021;-12
2022/08/23 00:48:32;;;;;;;5.68;3.55;;;20.20;76.10;;;;;;5055147;28;20040;-11
2022/08/23 00:51:14;;;;;;;4.97;3.40;;;20.10;76.20;;;;;;5054565;28;20116;-12
2022/08/23 00:53:45;;;;;;;6.38;4.60;;;20.10;76.30;;;;;;5054800;28;20052;-11
2022/08/23 00:56:14;;;;;;;3.72;3.25;;;20.00;76.70;;;;;;5054947;28;20028;-11
2022/08/23 00:58:41;;;;;;;3.80;3.13;;;20.00;76.70;;;;;;5054881;28;20108;-11
2022/08/23 01:01:08;;;;;;;5.13;3.22;;;19.90;76.70;;;;;;5054582;28;20036;-11
2022/08/23 01:03:38;;;;;;;4.68;3.40;;;19.90;76.70;;;;;;5054832;28;20091;-11
2022/08/23 01:06:15;;;;;;;5.75;3.65;;;19.90;76.80;;;;;;5054737;28;20108;-12
2022/08/23 01:08:50;;;;;;;4.22;3.22;;;19.90;76.80;;;;;;5054773;28;20381;-11
2022/08/23 01:11:32;;;;;;;7.57;4.93;;;19.90;76.70;;;;;;5054739;28;20461;-10
2022/08/23 01:14:02;;;;;;;7.10;4.85;;;20.00;76.90;;;;;;5054665;28;20059;-11
2022/08/23 01:16:53;;;;;;;7.10;4.53;;;20.00;76.80;;;;;;5054094;28;20104;-10
2022/08/23 01:19:34;;;;;;;5.57;4.13;;;20.00;76.80;;;;;;5054567;28;20082;-11
2022/08/23 01:22:20;;;;;;;6.97;4.65;;;20.00;77.00;;;;;;5054520;28;20104;-12
2022/08/23 01:24:47;;;;;;;7.47;4.32;;;20.00;76.70;;;;;;5052904;28;20485;-11
2022/08/23 01:27:13;;;;;;;7.18;4.57;;;20.00;76.70;;;;;;5054012;28;20025;-12
2022/08/23 01:29:40;;;;;;;5.28;3.70;;;20.00;76.80;;;;;;5054248;28;20104;-12
2022/08/23 01:32:08;;;;;;;9.38;5.57;;;20.00;76.80;;;;;;5052654;28;20028;-11
2022/08/23 01:34:35;;;;;;;8.57;6.07;;;19.90;76.90;;;;;;5053894;28;20035;-11
2022/08/23 01:37:06;;;;;;;8.27;5.30;;;19.90;77.30;;;;;;5053836;28;20509;-11
2022/08/23 01:39:33;;;;;;;8.32;6.00;;;19.90;77.50;;;;;;5053583;28;20104;-11
2022/08/23 01:41:59;;;;;;;8.10;4.78;;;19.90;77.50;;;;;;5053838;28;20029;-12
2022/08/23 01:44:25;;;;;;;7.72;5.15;;;19.80;77.50;;;;;;5052487;28;20029;-11
2022/08/23 01:46:53;;;;;;;10.18;6.60;;;19.80;77.50;;;;;;5053399;28;20070;-11
2022/08/23 01:49:19;;;;;;;7.35;5.15;;;19.70;77.50;;;;;;5053662;28;20029;-11
2022/08/23 01:51:45;;;;;;;11.73;6.47;;;19.70;77.60;;;;;;5053606;28;20033;-12
2022/08/23 01:54:12;;;;;;;8.73;6.60;;;19.70;77.70;;;;;;5052838;28;20140;-12
2022/08/23 01:56:40;;;;;;;8.98;6.05;;;19.60;78.00;;;;;;5052603;28;20104;-12
2022/08/23 01:59:08;;;;;;;9.88;7.30;;;19.60;78.20;;;;;;5053387;28;20397;-12
2022/08/23 02:01:35;;;;;;;10.02;7.45;;;19.50;78.40;;;;;;5053282;28;20028;-12
2022/08/23 02:04:01;;;;;;;7.18;5.45;;;19.40;78.60;;;;;;5053721;28;20028;-11
2022/08/23 02:06:28;;;;;;;9.07;6.10;;;19.40;78.90;;;;;;5053343;28;20381;-12
2022/08/23 02:09:00;;;;;;;7.45;5.10;;;19.40;79.00;;;;;;5053471;28;20021;-11
2022/08/23 02:11:29;;;;;;;8.43;6.40;;;19.40;79.10;;;;;;5053605;28;20028;-13
2022/08/23 02:14:00;;;;;;;14.25;7.97;;;19.30;79.20;;;;;;5053564;28;20025;-12
2022/08/23 02:16:33;;;;;;;9.93;5.80;;;19.20;79.30;;;;;;5053089;28;20032;-12
2022/08/23 02:19:01;;;;;;;7.95;5.20;;;19.20;79.40;;;;;;5053621;28;20381;-12
2022/08/23 02:21:32;;;;;;;8.35;5.65;;;19.10;79.40;;;;;;5053472;28;20025;-12
2022/08/23 02:24:05;;;;;;;9.15;6.10;;;19.10;79.30;;;;;;5053460;28;20028;-11
2022/08/23 02:26:31;;;;;;;7.67;4.97;;;19.10;79.30;;;;;;5053155;28;20484;-11
2022/08/23 02:28:57;;;;;;;12.77;7.03;;;19.00;79.50;;;;;;5053510;28;20361;-12
2022/08/23 02:31:24;;;;;;;10.07;6.78;;;19.00;79.50;;;;;;5053257;28;20041;-12
2022/08/23 02:33:51;;;;;;;8.45;5.72;;;19.10;79.80;;;;;;5053323;28;20032;-12
2022/08/23 02:36:17;;;;;;;13.30;7.80;;;19.00;79.80;;;;;;5053417;28;20041;-11
2022/08/23 02:38:43;;;;;;;11.05;7.43;;;19.00;79.70;;;;;;5053258;28;20087;-11
2022/08/23 02:41:09;;;;;;;9.40;5.97;;;19.00;80.00;;;;;;5052833;28;20024;-12
2022/08/23 02:43:36;;;;;;;8.48;5.97;;;19.00;80.30;;;;;;5053224;28;20019;-11
2022/08/23 02:46:05;;;;;;;9.32;5.78;;;19.00;79.90;;;;;;5052790;28;20025;-11
2022/08/23 02:48:34;;;;;;;9.43;6.50;;;18.90;79.90;;;;;;5052887;28;20049;-11
2022/08/23 02:51:03;;;;;;;10.50;6.15;;;18.90;81.10;;;;;;5052981;28;20028;-12
2022/08/23 02:53:30;;;;;;;10.27;6.72;;;18.90;81.10;;;;;;5056346;28;20045;-11
2022/08/23 02:55:57;;;;;;;9.45;5.55;;;18.80;81.40;;;;;;5057156;28;20400;-11
2022/08/23 02:58:23;;;;;;;6.95;5.38;;;18.70;80.70;;;;;;5057054;28;20038;-11
2022/08/23 03:00:50;;;;;;;8.27;5.35;;;18.70;80.70;;;;;;5056568;28;20029;-11
2022/08/23 03:03:16;;;;;;;7.07;5.18;;;18.60;80.50;;;;;;5057096;28;20033;-11
2022/08/23 03:05:43;;;;;;;8.57;5.47;;;18.60;80.50;;;;;;5056724;28;20021;-11
2022/08/23 03:08:09;;;;;;;9.15;6.30;;;18.60;80.50;;;;;;5056994;28;20033;-11
2022/08/23 03:10:40;;;;;;;7.85;5.43;;;18.60;80.50;;;;;;5055332;28;20123;-12
2022/08/23 03:13:06;;;;;;;9.18;5.35;;;18.50;80.50;;;;;;5056715;28;20112;-11
2022/08/23 03:15:32;;;;;;;9.93;7.05;;;18.50;80.60;;;;;;5056711;28;20580;-11
2022/08/23 03:17:59;;;;;;;14.98;8.10;;;18.50;80.50;;;;;;5056458;28;20448;-11
2022/08/23 03:20:25;;;;;;;7.45;5.68;;;18.40;80.60;;;;;;5056495;28;20539;-12
2022/08/23 03:22:51;;;;;;;9.20;5.63;;;18.40;80.70;;;;;;5056628;28;20032;-12
2022/08/23 03:25:17;;;;;;;8.43;5.43;;;18.40;80.80;;;;;;5056345;28;20457;-11
2022/08/23 03:27:43;;;;;;;8.77;4.80;;;18.40;80.90;;;;;;5056288;28;20124;-10
2022/08/23 03:30:10;;;;;;;6.78;5.20;;;18.40;80.80;;;;;;5056543;28;20033;-11
2022/08/23 03:32:36;;;;;;;8.20;5.82;;;18.40;80.80;;;;;;5056399;28;20033;-10
2022/08/23 03:35:02;;;;;;;9.48;5.32;;;18.40;80.80;;;;;;5056272;28;20028;-11
2022/08/23 03:37:29;;;;;;;8.85;5.47;;;18.40;80.80;;;;;;5056641;28;20030;-11
2022/08/23 03:39:54;;;;;;;7.18;5.57;;;18.40;80.70;;;;;;5056456;28;20496;-12
2022/08/23 03:42:20;;;;;;;12.02;7.65;;;18.30;80.70;;;;;;5056404;28;20029;-11
2022/08/23 03:44:46;;;;;;;11.63;7.63;;;18.30;80.90;;;;;;5056324;28;20052;-11
2022/08/23 03:47:12;;;;;;;9.65;5.95;;;18.20;80.90;;;;;;5056020;28;20520;-12
2022/08/23 03:49:38;;;;;;;7.18;5.40;;;18.20;81.20;;;;;;5055975;28;20107;-12
2022/08/23 03:52:06;;;;;;;10.07;5.30;;;18.20;81.00;;;;;;5056028;28;20021;-13
2022/08/23 03:54:32;;;;;;;5.88;4.40;;;18.20;81.00;;;;;;5055692;28;20049;-12
2022/08/23 03:57:02;;;;;;;8.50;5.80;;;18.10;81.00;;;;;;5055624;28;20082;-12
2022/08/23 03:59:31;;;;;;;10.60;7.53;;;18.10;81.20;;;;;;5055780;28;20025;-12
2022/08/23 04:01:58;;;;;;;11.18;7.93;;;18.10;81.10;;;;;;5055616;28;20032;-12
2022/08/23 04:04:23;;;;;;;11.27;7.13;;;18.10;81.20;;;;;;5055766;28;20032;-12
2022/08/23 04:06:49;;;;;;;9.60;5.70;;;18.00;81.50;;;;;;5055768;28;20028;-11
2022/08/23 04:09:16;;;;;;;10.88;7.35;;;18.00;81.60;;;;;;5056366;28;20029;-12
2022/08/23 04:11:43;;;;;;;8.93;6.30;;;17.90;81.80;;;;;;5055845;28;20377;-12
2022/08/23 04:14:12;;;;;;;10.15;5.63;;;17.90;81.80;;;;;;5055820;28;20028;-12
2022/08/23 04:16:39;;;;;;;9.48;6.50;;;17.90;81.80;;;;;;5055261;28;20033;-11
2022/08/23 04:19:07;;;;;;;8.98;5.72;;;17.90;81.80;;;;;;5055242;28;20017;-11
2022/08/23 04:21:36;;;;;;;8.38;5.78;;;17.90;81.80;;;;;;5055322;28;20040;-12
2022/08/23 04:24:03;;;;;;;11.18;7.20;;;17.90;81.90;;;;;;5055599;28;20025;-12
2022/08/23 04:26:30;;;;;;;10.07;6.38;;;17.90;81.80;;;;;;5055421;28;20029;-11
2022/08/23 04:28:56;;;;;;;14.02;8.75;;;17.90;81.80;;;;;;5055237;28;20029;-12
2022/08/23 04:31:25;;;;;;;8.93;6.00;;;17.80;81.80;;;;;;5055063;28;20033;-11
2022/08/23 04:33:52;;;;;;;10.95;6.00;;;17.80;82.10;;;;;;5055080;28;20397;-11
2022/08/23 04:36:19;;;;;;;23.23;9.52;;;17.80;82.00;;;;;;5055328;28;20033;-11
2022/08/23 04:38:46;;;;;;;13.25;7.55;;;17.90;81.80;;;;;;5055315;28;20036;-12
2022/08/23 04:43:56;;;;;;;11.68;8.30;;;17.90;82.00;;;;;;5055229;28;20031;-12
2022/08/23 04:46:22;;;;;;;14.13;8.25;;;17.90;82.00;;;;;;5055007;28;20488;-12
2022/08/23 04:48:48;;;;;;;10.63;7.55;;;17.90;82.20;;;;;;5054916;28;20096;-12
2022/08/23 04:51:15;;;;;;;10.65;6.55;;;17.90;82.20;;;;;;5055065;28;20025;-11
2022/08/23 04:53:42;;;;;;;8.02;5.10;;;17.90;82.30;;;;;;5054619;28;20117;-12
2022/08/23 04:56:08;;;;;;;8.68;5.47;;;17.90;82.00;;;;;;5054621;28;20464;-13
2022/08/23 04:58:37;;;;;;;8.18;5.78;;;17.90;81.90;;;;;;5054840;28;20088;-11
2022/08/23 05:01:06;;;;;;;12.68;7.13;;;17.90;81.80;;;;;;5054236;28;20489;-12
2022/08/23 05:03:33;;;;;;;7.25;5.15;;;17.90;81.60;;;;;;5055389;28;20024;-11
2022/08/23 05:06:00;;;;;;;8.75;6.43;;;17.90;81.60;;;;;;5054823;28;20043;-12
2022/08/23 05:08:27;;;;;;;10.20;5.38;;;18.00;81.40;;;;;;5054439;28;20025;-11
2022/08/23 05:10:53;;;;;;;9.38;6.03;;;18.00;81.30;;;;;;5054214;28;20107;-12
2022/08/23 05:13:19;;;;;;;14.18;5.88;;;18.00;81.20;;;;;;5054958;28;20052;-11
2022/08/23 05:15:45;;;;;;;7.55;5.07;;;18.10;81.20;;;;;;5053495;28;20039;-12
2022/08/23 05:18:11;;;;;;;8.88;5.75;;;18.10;81.10;;;;;;5054890;28;20107;-12
2022/08/23 05:20:38;;;;;;;7.40;5.20;;;18.10;80.90;;;;;;5054778;28;20465;-12
2022/08/23 05:23:04;;;;;;;10.07;5.72;;;18.20;80.80;;;;;;5054201;28;20481;-11
2022/08/23 05:25:49;;;;;;;6.80;5.10;;;18.20;80.70;;;;;;5054127;28;20025;-12
2022/08/23 05:28:33;;;;;;;8.80;5.40;;;18.20;80.60;;;;;;5054111;28;20104;-11
2022/08/23 05:31:11;;;;;;;10.15;5.63;;;18.30;80.50;;;;;;5053787;28;20036;-12
2022/08/23 05:33:37;;;;;;;11.20;7.15;;;18.30;80.40;;;;;;5053985;28;20017;-11
2022/08/23 05:36:06;;;;;;;9.73;7.40;;;18.40;80.20;;;;;;5054125;28;20477;-11
2022/08/23 05:38:33;;;;;;;10.63;6.95;;;18.40;80.20;;;;;;5053845;28;20493;-11
2022/08/23 05:41:01;;;;;;;8.18;5.75;;;18.50;80.00;;;;;;5053963;28;20116;-11
2022/08/23 05:43:28;;;;;;;9.23;5.53;;;18.60;79.90;;;;;;5053804;28;20106;-12
2022/08/23 05:46:09;;;;;;;9.77;6.97;;;18.70;79.80;;;;;;5053701;28;20883;-11
2022/08/23 05:48:36;;;;;;;9.32;6.47;;;18.90;79.40;;;;;;5053947;28;20133;-11
2022/08/23 05:51:16;;;;;;;9.35;6.47;;;19.00;79.40;;;;;;5053746;28;20040;-12
2022/08/23 05:53:43;;;;;;;9.25;6.30;;;19.20;79.20;;;;;;5053601;28;20056;-11
2022/08/23 05:56:15;;;;;;;10.25;6.63;;;19.20;78.90;;;;;;5053808;28;20056;-10
2022/08/23 05:58:42;;;;;;;8.23;5.85;;;19.40;78.50;;;;;;5053572;28;20484;-12
2022/08/23 06:01:09;;;;;;;12.20;7.75;;;19.50;78.30;;;;;;5053220;28;20036;-12
2022/08/23 06:03:35;;;;;;;15.00;9.43;;;19.60;78.00;;;;;;5053751;28;20054;-12
2022/08/23 06:06:02;;;;;;;10.73;8.68;;;19.70;77.90;;;;;;5053718;28;20023;-12
2022/08/23 06:08:29;;;;;;;9.57;6.22;;;19.80;77.60;;;;;;5053696;28;20389;-11
2022/08/23 06:11:04;;;;;;;18.00;13.05;;;19.90;77.50;;;;;;5053124;28;20078;-11
2022/08/23 06:13:31;;;;;;;12.38;9.35;;;20.10;77.70;;;;;;5052387;28;20025;-12
2022/08/23 06:15:58;;;;;;;8.77;6.75;;;20.20;77.70;;;;;;5051766;28;20083;-12
2022/08/23 06:18:25;;;;;;;11.00;8.38;;;20.30;77.10;;;;;;5053476;28;20033;-11
2022/08/23 06:21:06;;;;;;;10.80;8.05;;;20.40;77.80;;;;;;5053217;28;20436;-12
2022/08/23 06:23:32;;;;;;;11.32;6.95;;;20.60;77.20;;;;;;5053522;28;20048;-11
2022/08/23 06:26:00;;;;;;;11.93;6.88;;;20.70;76.70;;;;;;5052631;28;20111;-11
2022/08/23 06:28:29;;;;;;;11.40;7.30;;;20.90;76.70;;;;;;5052722;28;20040;-11
2022/08/23 06:30:56;;;;;;;8.65;5.82;;;20.90;76.50;;;;;;5053014;28;20047;-11
2022/08/23 06:33:23;;;;;;;10.15;6.55;;;21.10;76.80;;;;;;5051807;28;20095;-11
2022/08/23 06:35:49;;;;;;;11.80;7.25;;;21.20;76.50;;;;;;5052849;28;20025;-11
2022/08/23 06:38:17;;;;;;;9.05;6.70;;;21.40;76.50;;;;;;5053300;28;20033;-11
2022/08/23 06:40:43;;;;;;;10.90;7.32;;;21.50;76.10;;;;;;5053030;28;20017;-11
2022/08/23 06:43:09;;;;;;;10.93;7.03;;;21.60;76.10;;;;;;5053024;28;20029;-11
2022/08/23 06:45:36;;;;;;;13.98;7.55;;;21.80;75.90;;;;;;5052921;28;20025;-12
2022/08/23 06:48:02;;;;;;;10.02;7.45;;;21.90;75.60;;;;;;5052850;28;20071;-11
2022/08/23 06:50:28;;;;;;;12.82;8.35;;;22.00;76.20;;;;;;5053162;28;20038;-10
2022/08/23 06:52:54;;;;;;;9.50;6.07;;;22.20;76.60;;;;;;5052517;28;20057;-11
2022/08/23 06:55:19;;;;;;;12.23;6.93;;;22.40;76.20;;;;;;5052845;28;20110;-11
2022/08/23 06:57:46;;;;;;;12.70;8.50;;;22.60;75.50;;;;;;5052802;28;20033;-11
2022/08/23 07:00:12;;;;;;;10.95;8.23;;;22.90;75.30;;;;;;5052781;28;20075;-11
2022/08/23 07:02:38;;;;;;;11.32;7.18;;;23.00;74.70;;;;;;5052931;28;20029;-11
2022/08/23 07:05:05;;;;;;;11.43;7.30;;;23.30;74.10;;;;;;5052810;28;20083;-11
2022/08/23 07:07:30;;;;;;;8.98;5.53;;;23.40;73.50;;;;;;5052668;28;20411;-11
2022/08/23 07:09:56;;;;;;;11.68;6.75;;;23.50;73.20;;;;;;5053061;28;20090;-11
2022/08/23 07:12:22;;;;;;;9.07;6.13;;;23.60;72.50;;;;;;5051447;28;20393;-11
2022/08/23 07:14:48;;;;;;;7.95;5.57;;;23.70;72.20;;;;;;5052461;28;20029;-11
2022/08/23 07:17:14;;;;;;;8.75;6.50;;;23.80;72.20;;;;;;5052457;28;20067;-11
2022/08/23 07:19:42;;;;;;;9.60;6.03;;;23.90;72.00;;;;;;5051364;28;20044;-11
2022/08/23 07:22:09;;;;;;;7.45;4.95;;;24.10;71.60;;;;;;5052544;28;20036;-10
2022/08/23 07:24:36;;;;;;;9.77;6.60;;;24.20;71.20;;;;;;5052543;28;20439;-11
2022/08/23 07:27:08;;;;;;;12.70;7.45;;;24.40;70.90;;;;;;5052687;28;20018;-11
2022/08/23 07:29:38;;;;;;;9.38;6.32;;;24.60;70.30;;;;;;5052843;28;20025;-11
2022/08/23 07:32:05;;;;;;;12.02;7.95;;;24.80;69.50;;;;;;5052374;28;20029;-11
2022/08/23 07:34:31;;;;;;;14.68;8.15;;;25.00;68.80;;;;;;5052687;28;20025;-10
2022/08/23 07:36:58;;;;;;;7.88;5.45;;;25.10;68.70;;;;;;5052426;28;20041;-11
2022/08/23 07:39:25;;;;;;;10.82;7.10;;;25.30;68.20;;;;;;5055482;28;20403;-10
2022/08/23 07:41:51;;;;;;;12.02;7.15;;;25.50;68.00;;;;;;5056103;28;20029;-11
2022/08/23 07:44:18;;;;;;;10.98;7.03;;;25.80;67.80;;;;;;5054853;28;20074;-10
2022/08/23 07:46:45;;;;;;;8.73;6.40;;;26.10;67.10;;;;;;5055927;28;20063;-11
2022/08/23 07:49:12;;;;;;;10.45;6.97;;;26.40;66.10;;;;;;5056059;28;20035;-11
2022/08/23 07:51:41;;;;;;;11.27;5.95;;;26.80;65.20;;;;;;5056301;28;20380;-11
2022/08/23 07:54:09;;;;;;;9.80;6.47;;;27.00;64.80;;;;;;5055616;28;20055;-11
2022/08/23 07:56:35;;;;;;;12.20;7.97;;;27.20;63.70;;;;;;5055963;28;20039;-11
2022/08/23 07:59:02;;;;;;;11.60;8.10;;;27.40;63.50;;;;;;5055852;28;20116;-11
2022/08/23 08:01:29;;;;;;;12.88;8.77;;;27.60;63.00;;;;;;5055578;28;20029;-11
2022/08/23 08:03:57;;;;;;;8.98;5.90;;;27.80;62.50;;;;;;5055674;28;20115;-11
2022/08/23 08:06:29;;;;;;;9.52;6.50;;;27.90;62.40;;;;;;5055965;28;20079;-12
2022/08/23 08:08:57;;;;;;;8.60;5.30;;;28.10;61.80;;;;;;5054113;28;20025;-10
2022/08/23 08:11:26;;;;;;;8.80;5.32;;;28.30;61.40;;;;;;5055842;28;20025;-11
2022/08/23 08:13:53;;;;;;;7.30;4.93;;;28.50;60.60;;;;;;5055514;28;20029;-11
2022/08/23 08:16:34;;;;;;;10.23;5.80;;;28.90;60.20;;;;;;5055273;28;20515;-10
2022/08/23 08:19:02;;;;;;;8.70;5.30;;;29.20;59.10;;;;;;5055609;28;20024;-10
2022/08/23 08:21:28;;;;;;;7.72;5.20;;;29.50;57.00;;;;;;5055368;28;20036;-11
2022/08/23 08:23:56;;;;;;;10.23;6.15;;;29.70;57.00;;;;;;5055375;28;20104;-11
2022/08/23 08:26:23;;;;;;;9.45;6.10;;;30.00;56.70;;;;;;5055228;28;20043;-11
2022/08/23 08:28:49;;;;;;;7.57;5.00;;;30.30;55.80;;;;;;5054981;28;20061;-11
2022/08/23 08:31:15;;;;;;;7.07;4.97;;;30.40;55.40;;;;;;5055395;28;20035;-11
2022/08/23 08:33:41;;;;;;;8.57;4.72;;;30.40;54.90;;;;;;5055082;28;20029;-11
2022/08/23 08:36:25;;;;;;;7.85;4.45;;;30.40;55.20;;;;;;5055001;28;20029;-11
2022/08/23 08:38:51;;;;;;;7.60;4.55;;;30.60;55.00;;;;;;5055149;28;20025;-11
2022/08/23 08:41:39;;;;;;;6.55;4.32;;;30.90;54.70;;;;;;5055694;28;20025;-11
2022/08/23 08:44:09;;;;;;;8.13;5.13;;;31.10;53.20;;;;;;5055273;28;20586;-12
2022/08/23 08:46:49;;;;;;;6.32;3.95;;;31.10;52.40;;;;;;5055073;28;20504;-10
2022/08/23 08:49:23;;;;;;;10.80;6.13;;;31.20;52.50;;;;;;5055031;28;20029;-11
2022/08/23 08:51:52;;;;;;;8.10;5.43;;;31.20;51.40;;;;;;5054757;28;20086;-11
2022/08/23 08:54:23;;;;;;;7.47;4.90;;;31.30;51.60;;;;;;5054594;28;20090;-11
2022/08/23 08:56:52;;;;;;;10.50;4.65;;;31.30;52.00;;;;;;5054779;28;20037;-11
2022/08/23 08:59:22;;;;;;;6.38;4.13;;;31.40;51.90;;;;;;5054507;28;20358;-11
2022/08/23 09:01:49;;;;;;;11.35;5.40;;;31.60;51.60;;;;;;5054546;28;20028;-10
2022/08/23 09:04:16;;;;;;;8.85;6.10;;;31.80;50.90;;;;;;5054551;28;20029;-11
2022/08/23 09:06:57;;;;;;;7.10;5.10;;;31.50;49.70;;;;;;5054527;28;20074;-11
2022/08/23 09:09:44;;;;;;;5.22;3.47;;;31.00;50.30;;;;;;5054814;28;20071;-11
2022/08/23 09:12:29;;;;;;;7.70;5.50;;;30.50;51.70;;;;;;5054744;28;20032;-10
2022/08/23 09:15:19;;;;;;;7.53;4.60;;;30.70;51.00;;;;;;5054300;28;20017;-11
2022/08/23 09:17:59;;;;;;;8.90;4.78;;;30.80;50.60;;;;;;5054487;28;20041;-11
2022/08/23 09:20:28;;;;;;;9.80;5.70;;;30.70;50.50;;;;;;5054315;28;20075;-11
2022/08/23 09:23:11;;;;;;;8.05;5.18;;;30.50;50.50;;;;;;5052699;28;20028;-11
2022/08/23 09:25:37;;;;;;;;;;;30.40;50.40;;;;;;5054559;28;20032;-11
2022/08/23 09:28:04;;;;;;;4.38;3.85;;;30.50;48.60;;;;;;5052902;28;19912;-11
2022/08/23 09:30:53;;;;;;;7.70;4.85;;;30.70;50.80;;;;;;5054018;28;20116;-11
2022/08/23 09:33:23;;;;;;;5.32;3.50;;;31.00;50.10;;;;;;5054044;28;20024;-11
2022/08/23 09:36:29;;;;;;;10.60;5.13;;;31.50;49.70;;;;;;5054225;28;20055;-11
2022/08/23 09:39:02;;;;;;;7.68;4.53;;;31.80;48.30;;;;;;5047494;28;20083;-11
2022/08/23 09:41:38;;;;;;;8.32;4.78;;;31.80;47.70;;;;;;5053883;28;20036;-11
2022/08/23 09:44:08;;;;;;;6.03;3.70;;;31.90;47.80;;;;;;5054058;28;20107;-12
2022/08/23 09:46:40;;;;;;;5.85;4.38;;;31.90;47.60;;;;;;5052518;28;20576;-12
2022/08/23 09:49:27;;;;;;;6.13;4.80;;;32.00;47.60;;;;;;5053554;28;20121;-11
2022/08/23 09:51:57;;;;;;;5.88;4.13;;;32.40;47.30;;;;;;5053699;28;20116;-10
2022/08/23 09:54:32;;;;;;;6.80;4.03;;;32.70;45.60;;;;;;5053568;28;20056;-11
2022/08/23 09:57:04;;;;;;;5.15;3.65;;;33.10;43.70;;;;;;5053306;28;20025;-11
2022/08/23 09:59:46;;;;;;;7.10;4.43;;;33.30;44.40;;;;;;5053911;28;20021;-11
2022/08/23 10:02:35;;;;;;;6.00;4.05;;;33.60;43.90;;;;;;5053565;28;20028;-10
2022/08/23 10:05:06;;;;;;;6.53;3.85;;;33.90;43.50;;;;;;5052937;28;20392;-11
2022/08/23 10:07:38;;;;;;;6.13;4.30;;;34.30;43.40;;;;;;5053646;28;20029;-10
2022/08/23 10:10:30;;;;;;;5.00;3.60;;;34.60;43.10;;;;;;5053652;28;20392;-10
2022/08/23 10:12:57;;;;;;;5.05;4.07;;;34.90;42.40;;;;;;5047365;28;20453;-11
2022/08/23 10:16:16;;;;;;;5.97;4.03;;;35.20;40.10;;;;;;5053253;28;20397;-10
2022/08/23 10:18:59;;;;;;;4.95;4.00;;;35.40;39.60;;;;;;5011419;28;20034;-11
2022/08/23 10:21:30;;;;;;;7.47;5.07;;;35.70;40.50;;;;;;5011565;28;20041;-11
2022/08/23 10:24:40;;;;;;;7.57;3.95;;;35.90;38.30;;;;;;5011810;28;20036;-11
2022/08/23 10:29:47;;;;;;;6.32;3.78;;;36.00;39.30;;;;;;5049101;28;20507;-12
2022/08/23 10:32:31;;;;;;;3.97;2.90;;;36.20;38.70;;;;;;5050580;28;20052;-9
2022/08/23 10:35:32;;;;;;;4.38;3.38;;;36.00;39.50;;;;;;5050250;28;20024;-9
2022/08/23 10:37:58;;;;;;;4.75;3.47;;;36.30;36.10;;;;;;5050378;28;20076;-10
2022/08/23 10:40:35;;;;;;;5.93;3.10;;;36.30;37.80;;;;;;5050261;28;20119;-9
2022/08/23 10:43:29;;;;;;;5.35;3.30;;;36.40;38.60;;;;;;5050325;28;20032;-10
2022/08/23 10:45:59;;;;;;;5.25;3.08;;;36.20;38.80;;;;;;5050262;28;20030;-11
2022/08/23 10:48:28;;;;;;;6.63;3.65;;;35.70;39.60;;;;;;5050057;28;20390;-11
2022/08/23 10:51:02;;;;;;;4.10;3.10;;;35.40;38.50;;;;;;5049858;28;20037;-11
2022/08/23 10:54:08;;;;;;;3.13;2.80;;;35.40;40.30;;;;;;5050103;28;20389;-11
2022/08/23 10:56:37;;;;;;;6.20;3.10;;;35.70;39.60;;;;;;5049913;28;20052;-11
2022/08/23 10:59:13;;;;;;;7.68;3.53;;;36.20;37.00;;;;;;5050082;28;20025;-11
2022/08/23 11:01:49;;;;;;;4.25;2.70;;;36.60;35.80;;;;;;5050165;28;20033;-11
2022/08/23 11:04:31;;;;;;;5.97;3.20;;;36.90;35.40;;;;;;5049959;28;20025;-11
2022/08/23 11:07:13;;;;;;;4.63;2.63;;;37.30;35.40;;;;;;5049673;28;20021;-11
2022/08/23 11:10:14;;;;;;;3.13;2.60;;;37.60;35.30;;;;;;5050096;28;20033;-11
2022/08/23 11:12:57;;;;;;;4.05;2.90;;;37.90;35.00;;;;;;5048842;28;20071;-11
2022/08/23 11:15:31;;;;;;;;;;;38.10;33.40;;;;;;5050140;28;20032;-11
2022/08/23 11:18:04;;;;;;;4.90;3.00;;;37.90;34.60;;;;;;5049846;28;19941;-10
2022/08/23 11:20:48;;;;;;;3.55;2.50;;;37.90;35.00;;;;;;5048353;28;20029;-11
2022/08/23 11:23:46;;;;;;;4.97;2.90;;;37.90;34.70;;;;;;5049668;28;20072;-11
2022/08/23 11:26:40;;;;;;;2.70;2.50;;;38.00;34.20;;;;;;5049509;28;20109;-11
2022/08/23 11:29:06;;;;;;;4.75;2.45;;;38.00;35.30;;;;;;5047665;28;20053;-11
2022/08/23 11:31:58;;;;;;;3.28;2.00;;;38.00;35.20;;;;;;5049305;28;20028;-11
2022/08/23 11:34:42;;;;;;;5.05;2.30;;;38.00;35.20;;;;;;5049650;28;20033;-11
2022/08/23 11:37:17;;;;;;;3.10;2.35;;;38.10;33.20;;;;;;5049094;28;20021;-11
2022/08/23 11:39:58;;;;;;;4.05;2.47;;;38.10;35.00;;;;;;5043670;28;20025;-11
2022/08/23 11:42:30;;;;;;;3.20;2.30;;;38.30;34.10;;;;;;5035899;28;20072;-11
2022/08/23 11:44:56;;;;;;;3.17;2.38;;;38.70;34.40;;;;;;5036052;28;20033;-11
2022/08/23 11:47:41;;;;;;;2.25;2.05;;;39.40;31.80;;;;;;5035670;28;20125;-11
2022/08/23 11:50:40;;;;;;;3.35;2.28;;;39.90;31.50;;;;;;5035983;28;20025;-11
2022/08/23 11:53:18;;;;;;;2.35;2.10;;;40.40;29.30;;;;;;5035538;28;20025;-11
2022/08/23 11:56:03;;;;;;;2.15;2.00;;;40.50;30.40;;;;;;5036287;28;20562;-11
2022/08/23 11:59:11;;;;;;;2.72;2.00;;;40.50;29.80;;;;;;5036429;28;20076;-11
2022/08/23 12:01:39;;;;;;;3.55;2.08;;;40.70;30.30;;;;;;5035340;28;20030;-11
2022/08/23 12:04:24;;;;;;;4.70;2.10;;;41.00;29.10;;;;;;5035827;28;20056;-11
2022/08/23 12:06:56;;;;;;;2.15;1.95;;;41.30;28.60;;;;;;5035420;28;20117;-11
2022/08/23 12:09:22;;;;;;;5.32;1.92;;;41.60;27.80;;;;;;5035598;28;20441;-11
2022/08/23 12:11:54;;;;;;;1.88;1.70;;;42.00;28.20;;;;;;5035327;28;20120;-12
2022/08/23 12:14:29;;;;;;;;;;;42.20;28.20;;;;;;5034546;28;20051;-10
2022/08/23 12:16:57;;;;;;;2.95;1.90;;;42.40;27.60;;;;;;5034992;28;20354;-11
2022/08/23 12:19:53;;;;;;;3.85;2.10;;;42.40;27.20;;;;;;5035150;28;20108;-11
2022/08/23 12:22:27;;;;;;;2.47;1.95;;;42.60;26.70;;;;;;5034707;28;20518;-12
2022/08/23 12:24:58;;;;;;;2.72;2.00;;;42.70;27.20;;;;;;5035751;28;20068;-11
2022/08/23 12:27:36;;;;;;;2.58;1.98;;;42.60;27.70;;;;;;5034733;28;20029;-11
2022/08/23 12:30:40;;;;;;;1.80;1.70;;;42.60;27.40;;;;;;5035073;28;20029;-11
2022/08/23 12:33:40;;;;;;;3.75;2.17;;;42.60;27.50;;;;;;5032638;28;20427;-12
2022/08/23 12:36:49;;;;;;;4.32;1.85;;;42.50;27.30;;;;;;5032789;28;20488;-11
2022/08/23 12:39:32;;;;;;;3.58;2.05;;;41.70;28.90;;;;;;5032808;28;20034;-11
2022/08/23 12:42:03;;;;;;;4.72;2.25;;;41.20;29.90;;;;;;5032792;28;20022;-11
2022/08/23 12:44:30;;;;;;;2.70;2.15;;;41.20;30.10;;;;;;5033562;28;20157;-11
2022/08/23 12:47:07;;;;;;;2.50;1.83;;;41.20;28.80;;;;;;5032351;28;20037;-11
2022/08/23 12:49:35;;;;;;;2.67;1.85;;;41.00;29.50;;;;;;5032606;28;20038;-11
2022/08/23 12:52:07;;;;;;;3.25;2.10;;;41.20;29.70;;;;;;5031933;28;20088;-11
2022/08/23 12:54:49;;;;;;;4.50;2.25;;;40.70;30.20;;;;;;5032554;28;20487;-11
2022/08/23 12:57:25;;;;;;;2.70;2.00;;;40.50;30.10;;;;;;5032685;28;20039;-11
2022/08/23 13:00:21;;;;;;;4.22;2.10;;;40.30;30.70;;;;;;5032435;28;20057;-12
2022/08/23 13:03:02;;;;;;;2.85;1.98;;;40.50;30.60;;;;;;5032233;28;20045;-13
2022/08/23 13:05:54;;;;;;;6.25;2.25;;;41.00;29.40;;;;;;5033067;28;20022;-11
2022/08/23 13:08:28;;;;;;;5.13;1.83;;;41.50;28.20;;;;;;5032152;28;20068;-11
2022/08/23 13:10:55;;;;;;;3.72;2.00;;;41.60;28.20;;;;;;5034139;28;20079;-11
2022/08/23 13:13:26;;;;;;;2.78;2.10;;;41.60;28.20;;;;;;5034478;28;20171;-10
2022/08/23 13:15:58;;;;;;;4.05;1.95;;;41.50;28.20;;;;;;5034718;28;20108;-12
2022/08/23 13:18:24;;;;;;;;;;;41.30;29.20;;;;;;5034948;28;20041;-11
2022/08/23 13:21:21;;;;;;;2.47;1.90;;;40.50;30.00;;;;;;5033827;28;19905;-11